Time;durP1;ratioP1;P1;durP2;ratioP2;P2;SDS_P1;SDS_P2;PMS_P1;PMS_P2;Temp;Humidity;BMP_temperature;BMP_pressure;BME280_temperature;BME280_humidity;BME280_pressure;Samples;Min_cycle;Max_cycle;Signal;HPM_P1;HPM_P2
2024/04/03 00:02:44;;;;;;;3.30;0.90;;;;;;;7.81;74.87;97951.27;226898;1270;24178;-83
2024/04/03 00:07:46;;;;;;;2.10;0.90;;;;;;;7.83;75.10;97956.64;226960;1273;22566;-82
2024/04/03 00:12:48;;;;;;;1.50;1.10;;;;;;;7.81;74.92;97951.55;226939;1270;22542;-82
2024/04/03 00:17:51;;;;;;;2.50;0.90;;;;;;;7.78;74.70;97957.40;226785;1273;22594;-81
2024/04/03 00:22:53;;;;;;;2.80;0.80;;;;;;;7.73;74.99;97959.05;226946;1267;22578;-82
2024/04/03 00:27:55;;;;;;;2.10;0.90;;;;;;;7.72;75.07;97958.58;226890;1270;25256;-83
2024/04/03 00:32:57;;;;;;;3.10;0.80;;;;;;;7.78;74.66;97958.17;226929;1272;24260;-82
2024/04/03 00:37:58;;;;;;;1.60;1.00;;;;;;;7.88;74.69;97960.48;226920;1266;22617;-83
2024/04/03 00:43:13;;;;;;;2.20;1.00;;;;;;;7.97;74.50;97955.20;226916;1272;22565;-84
2024/04/03 00:48:15;;;;;;;2.40;0.90;;;;;;;8.04;74.51;97955.48;226828;1266;22557;-83
2024/04/03 00:53:18;;;;;;;2.90;1.10;;;;;;;8.12;74.36;97959.27;226885;1270;22542;-82
2024/04/03 00:58:20;;;;;;;2.20;0.70;;;;;;;8.21;74.35;97954.91;226795;1270;24215;-84
2024/04/03 01:03:22;;;;;;;4.00;1.10;;;;;;;8.29;73.96;97954.08;226930;1272;22534;-83
2024/04/03 01:08:24;;;;;;;2.20;0.80;;;;;;;8.37;74.08;97954.02;226833;1270;22565;-81
2024/04/03 01:13:30;;;;;;;1.80;0.90;;;;;;;8.43;73.80;97950.95;226920;1273;22633;-82
2024/04/03 01:18:32;;;;;;;1.30;0.70;;;;;;;8.49;73.77;97952.05;226669;1270;274068;-81
2024/04/03 01:23:34;;;;;;;2.90;0.90;;;;;;;8.54;73.55;97953.42;226911;1273;22906;-81
2024/04/03 01:28:35;;;;;;;1.40;0.90;;;;;;;8.57;73.53;97949.39;226868;1272;22535;-82
2024/04/03 01:33:38;;;;;;;0.90;0.60;;;;;;;8.58;73.43;97943.41;226889;1268;22535;-82
2024/04/03 01:38:41;;;;;;;1.20;0.70;;;;;;;8.59;73.43;97943.34;226978;1273;22674;-82
2024/04/03 01:43:43;;;;;;;1.50;0.70;;;;;;;8.62;73.20;97946.20;226952;1270;22542;-81
2024/04/03 01:48:45;;;;;;;1.30;0.70;;;;;;;8.65;73.21;97944.20;226873;1267;25243;-82
2024/04/03 01:53:46;;;;;;;1.00;0.70;;;;;;;8.70;73.25;97944.02;226903;1273;24359;-80
2024/04/03 01:58:48;;;;;;;1.50;0.80;;;;;;;8.72;73.07;97941.96;226893;1269;24229;-82
2024/04/03 02:03:50;;;;;;;1.90;0.60;;;;;;;8.74;73.13;97942.71;226916;1267;22526;-83
2024/04/03 02:08:52;;;;;;;1.80;0.80;;;;;;;8.74;72.90;97939.79;226920;1270;25421;-81
2024/04/03 02:13:54;;;;;;;1.30;0.80;;;;;;;8.75;72.81;97936.15;226973;1269;22539;-83
2024/04/03 02:18:59;;;;;;;0.80;0.50;;;;;;;8.75;72.88;97934.04;226981;1266;22551;-81
2024/04/03 02:24:04;;;;;;;0.90;0.60;;;;;;;8.75;72.89;97934.25;226913;1270;22578;-83
2024/04/03 02:29:20;;;;;;;1.40;0.70;;;;;;;8.73;73.02;97930.10;226992;1269;22531;-83
2024/04/03 02:34:22;;;;;;;1.90;0.90;;;;;;;8.72;72.86;97932.29;226947;1269;24209;-82
2024/04/03 02:39:24;;;;;;;2.30;0.80;;;;;;;8.72;72.96;97928.59;226900;1269;25923;-82
2024/04/03 02:44:26;;;;;;;2.10;0.90;;;;;;;8.72;73.10;97919.65;226903;1269;22521;-81
2024/04/03 02:49:27;;;;;;;1.60;0.90;;;;;;;8.71;72.92;97913.28;226961;1265;22563;-83
2024/04/03 02:54:31;;;;;;;2.80;1.00;;;;;;;8.67;73.16;97909.56;226954;1272;22552;-82
2024/04/03 02:59:36;;;;;;;1.90;1.10;;;;;;;8.63;73.19;97909.91;226978;1270;22542;-82
2024/04/03 03:04:42;;;;;;;1.90;0.80;;;;;;;8.60;73.53;97908.25;226909;1270;22693;-83
2024/04/03 03:09:43;;;;;;;2.70;1.00;;;;;;;8.54;73.75;97905.11;226860;1269;22565;-82
2024/04/03 03:14:45;;;;;;;2.40;1.00;;;;;;;8.47;73.85;97905.77;226978;1269;22728;-82
2024/04/03 03:19:47;;;;;;;1.40;0.90;;;;;;;8.42;74.11;97897.38;226919;1270;22551;-81
2024/04/03 03:24:49;;;;;;;2.60;1.10;;;;;;;8.38;74.43;97898.64;226944;1270;22548;-83
2024/04/03 03:29:50;;;;;;;2.40;1.20;;;;;;;8.34;74.52;97892.54;226985;1269;22544;-82
2024/04/03 03:34:52;;;;;;;2.30;1.20;;;;;;;8.25;74.62;97887.48;226903;1267;22582;-83
2024/04/03 03:39:54;;;;;;;3.90;1.20;;;;;;;8.12;74.92;97891.39;226933;1269;22567;-82
2024/04/03 03:44:56;;;;;;;2.90;1.00;;;;;;;8.00;74.86;97893.59;226978;1269;22547;-83
2024/04/03 03:55:18;;;;;;;3.20;1.30;;;;;;;7.88;75.15;97908.48;226959;1266;22529;-82
2024/04/03 04:00:20;;;;;;;2.20;1.00;;;;;;;7.85;75.42;97911.80;227010;1269;22533;-79
2024/04/03 04:05:23;;;;;;;2.60;1.00;;;;;;;7.86;75.33;97920.16;227122;1273;22594;-78
2024/04/03 04:10:25;;;;;;;3.40;0.90;;;;;;;7.87;75.34;97921.20;227059;1270;22510;-79
2024/04/03 04:15:28;;;;;;;2.70;1.40;;;;;;;7.89;74.99;97925.66;226894;1272;22577;-78
2024/04/03 04:20:30;;;;;;;3.30;1.10;;;;;;;7.92;75.20;97924.60;226835;1273;24980;-79
2024/04/03 04:25:32;;;;;;;1.70;0.70;;;;;;;7.94;74.73;97923.94;226961;1272;24295;-79
2024/04/03 04:30:39;;;;;;;2.30;0.90;;;;;;;7.93;74.98;97925.48;226955;1273;22550;-79
2024/04/03 04:35:40;;;;;;;2.30;0.80;;;;;;;7.90;74.87;97920.50;227024;1273;22534;-79
2024/04/03 04:41:02;;;;;;;2.60;1.10;;;;;;;7.84;74.77;97921.70;226947;1269;22629;-79
2024/04/03 04:46:05;;;;;;;2.20;0.90;;;;;;;7.74;74.92;97926.95;226967;1273;22547;-79
2024/04/03 04:51:08;;;;;;;3.20;1.10;;;;;;;7.67;74.63;97932.13;227018;1273;22481;-79
2024/04/03 04:56:11;;;;;;;2.20;1.10;;;;;;;7.62;75.07;97932.95;226954;1267;22488;-79
2024/04/03 05:01:13;;;;;;;2.30;1.10;;;;;;;7.62;74.93;97934.77;226968;1272;22523;-79
2024/04/03 05:06:17;;;;;;;4.50;1.10;;;;;;;7.66;75.02;97939.63;227017;1273;22533;-79
2024/04/03 05:11:19;;;;;;;1.10;0.90;;;;;;;7.74;75.04;97946.05;226952;1273;25289;-80
2024/04/03 05:16:22;;;;;;;2.40;1.20;;;;;;;7.83;74.91;97955.83;226970;1273;22576;-80
2024/04/03 05:21:23;;;;;;;2.80;1.10;;;;;;;7.91;75.10;97963.61;226975;1266;22538;-80
2024/04/03 05:26:26;;;;;;;4.20;1.10;;;;;;;7.98;74.64;97963.55;227041;1272;23002;-79
2024/04/03 05:31:31;;;;;;;2.50;1.00;;;;;;;8.03;74.43;97965.56;227053;1269;22559;-79
2024/04/03 05:36:33;;;;;;;3.70;2.00;;;;;;;8.10;74.61;97956.79;226842;1273;22559;-80
2024/04/03 05:41:35;;;;;;;2.90;1.30;;;;;;;8.19;74.31;97962.73;226826;1263;22569;-80
2024/04/03 05:46:37;;;;;;;1.20;1.10;;;;;;;8.25;74.08;97960.94;226967;1273;23068;-83
2024/04/03 05:51:39;;;;;;;3.70;0.90;;;;;;;8.33;74.14;97962.60;226908;1273;22566;-78
2024/04/03 05:56:42;;;;;;;2.80;1.40;;;;;;;8.45;73.87;97956.33;226753;1257;22579;-79
2024/04/03 06:01:45;;;;;;;4.30;1.20;;;;;;;8.63;73.91;97951.20;226633;1266;22463;-80
2024/04/03 06:06:48;;;;;;;2.20;1.00;;;;;;;8.80;73.24;97946.64;226889;1263;22557;-78
2024/04/03 06:11:50;;;;;;;3.70;1.40;;;;;;;8.95;72.96;97946.83;226673;1265;23023;-78
2024/04/03 06:16:52;;;;;;;3.40;1.20;;;;;;;9.11;72.71;97947.27;226416;1257;22560;-78
2024/04/03 06:21:54;;;;;;;1.60;0.90;;;;;;;9.27;72.48;97941.30;226316;1263;22596;-77
2024/04/03 06:26:56;;;;;;;2.60;1.00;;;;;;;9.36;71.90;97938.68;226307;1260;22582;-78
2024/04/03 06:31:58;;;;;;;1.70;0.70;;;;;;;9.45;71.64;97941.89;226547;1250;23089;-78
2024/04/03 06:37:00;;;;;;;3.00;1.20;;;;;;;9.62;71.25;97939.36;226369;1267;22558;-76
2024/04/03 06:42:02;;;;;;;3.10;1.10;;;;;;;9.84;71.36;97936.02;226103;1260;25285;-76
2024/04/03 06:47:04;;;;;;;4.20;1.20;;;;;;;10.06;70.76;97935.80;226352;1260;22548;-76
2024/04/03 06:52:06;;;;;;;3.70;1.10;;;;;;;10.20;70.56;97945.52;226521;1264;24248;-77
2024/04/03 06:57:08;;;;;;;1.70;0.90;;;;;;;10.45;70.33;97948.50;226589;1253;22539;-79
2024/04/03 07:02:10;;;;;;;2.30;1.10;;;;;;;10.70;69.75;97950.26;226554;1253;22531;-78
2024/04/03 07:07:11;;;;;;;2.40;1.10;;;;;;;10.90;69.69;97943.91;226672;1266;22935;-77
2024/04/03 07:12:14;;;;;;;2.30;1.40;;;;;;;11.11;69.01;97946.85;226721;1266;22532;-79
2024/04/03 07:17:16;;;;;;;2.30;0.70;;;;;;;11.20;68.07;97957.86;226711;1269;22532;-77
2024/04/03 07:22:18;;;;;;;2.90;1.00;;;;;;;11.29;67.99;97963.96;226563;1266;22567;-77
2024/04/03 07:27:26;;;;;;;1.90;0.90;;;;;;;11.42;67.58;97962.65;226522;1253;22557;-77
2024/04/03 07:32:28;;;;;;;7.20;1.10;;;;;;;11.52;67.43;97957.83;226617;1263;23039;-78
2024/04/03 07:37:30;;;;;;;3.40;0.90;;;;;;;11.64;67.44;97961.98;226234;1259;23035;-79
2024/04/03 07:42:32;;;;;;;1.90;0.70;;;;;;;11.76;67.41;97968.14;226503;1265;23362;-77
2024/04/03 07:47:35;;;;;;;1.80;0.70;;;;;;;11.87;66.70;97966.23;226501;1266;22562;-78
2024/04/03 07:52:40;;;;;;;2.40;0.70;;;;;;;11.95;66.96;97967.99;227669;1256;25245;-78
2024/04/03 07:57:42;;;;;;;2.30;0.90;;;;;;;12.07;66.49;97970.45;226457;1267;22562;-77
2024/04/03 08:02:43;;;;;;;4.00;0.90;;;;;;;12.14;65.31;97980.75;226557;1267;22543;-77
2024/04/03 08:07:46;;;;;;;3.10;0.70;;;;;;;12.17;65.01;97981.33;226471;1266;22546;-77
2024/04/03 08:12:47;;;;;;;1.10;0.70;;;;;;;12.27;65.47;97972.00;226566;1266;22577;-77
2024/04/03 08:17:50;;;;;;;3.80;0.90;;;;;;;12.40;64.67;97968.41;226578;1266;22539;-83
2024/04/03 08:22:52;;;;;;;5.70;0.90;;;;;;;12.54;64.54;97970.00;226854;1256;22565;-77
2024/04/03 08:27:54;;;;;;;3.30;1.50;;;;;;;12.61;63.16;97966.86;226629;1272;22536;-77
2024/04/03 08:32:56;;;;;;;1.90;0.40;;;;;;;12.66;62.78;97968.80;226673;1267;22624;-77
2024/04/03 08:37:58;;;;;;;3.60;0.80;;;;;;;12.76;61.72;97974.45;226661;1259;25360;-76
2024/04/03 08:43:02;;;;;;;2.70;0.80;;;;;;;12.82;61.40;97972.55;226618;1257;24269;-77
2024/04/03 08:48:05;;;;;;;4.70;1.10;;;;;;;12.99;61.73;97970.59;226498;1254;22544;-77
2024/04/03 08:53:10;;;;;;;2.90;0.80;;;;;;;13.10;61.18;97966.61;226435;1270;22539;-84
2024/04/03 08:58:14;;;;;;;3.80;0.70;;;;;;;13.26;61.38;97971.15;227031;1270;22481;-77
2024/04/03 09:03:16;;;;;;;1.60;0.50;;;;;;;13.47;61.13;97969.80;226511;1251;22539;-78
2024/04/03 09:08:20;;;;;;;1.80;0.50;;;;;;;13.73;60.22;97975.17;226385;1267;22571;-77
2024/04/03 09:13:22;;;;;;;6.90;1.20;;;;;;;14.04;59.04;97963.39;226430;1264;22533;-76
2024/04/03 09:18:24;;;;;;;1.60;0.50;;;;;;;14.25;58.36;97966.84;226540;1263;22561;-77
2024/04/03 09:23:30;;;;;;;1.40;0.60;;;;;;;14.45;57.29;97976.63;226478;1265;22544;-76
2024/04/03 09:28:32;;;;;;;2.20;0.70;;;;;;;14.51;56.78;97972.78;226237;1267;25353;-76
2024/04/03 09:33:35;;;;;;;3.60;1.20;;;;;;;14.67;55.59;97978.38;226452;1267;22544;-77
2024/04/03 09:38:38;;;;;;;2.10;0.80;;;;;;;14.83;55.89;97981.58;226734;1260;22783;-77
2024/04/03 09:43:43;;;;;;;3.90;0.70;;;;;;;14.82;55.00;97982.73;226683;1272;22789;-78
2024/04/03 09:48:50;;;;;;;3.00;0.70;;;;;;;14.62;54.80;97985.99;226584;1272;22911;-77
2024/04/03 09:53:53;;;;;;;4.40;0.90;;;;;;;14.62;55.41;97987.95;226582;1257;22792;-78
2024/04/03 09:58:55;;;;;;;1.40;0.50;;;;;;;14.75;55.84;97985.24;227769;1271;22539;-77
2024/04/03 10:04:04;;;;;;;2.00;0.90;;;;;;;14.80;55.61;97987.96;226609;1266;22539;-77
2024/04/03 10:09:17;;;;;;;3.60;2.80;;;;;;;14.95;55.36;97993.91;226610;1266;22535;-78
2024/04/03 10:14:26;;;;;;;4.40;0.70;;;;;;;15.16;55.81;97990.55;226633;1266;22556;-78
2024/04/03 10:19:32;;;;;;;2.10;0.70;;;;;;;15.20;54.76;97981.52;226760;1258;22528;-80
2024/04/03 10:24:34;;;;;;;2.90;0.70;;;;;;;15.08;54.45;97985.77;226847;1256;22758;-79
2024/04/03 10:29:37;;;;;;;3.50;0.80;;;;;;;15.07;54.65;97984.09;226840;1256;22541;-80
2024/04/03 10:34:38;;;;;;;3.30;1.10;;;;;;;15.05;53.82;97978.27;227014;1269;22555;-79
2024/04/03 10:39:41;;;;;;;3.20;0.70;;;;;;;14.93;53.89;97982.86;226654;1269;25497;-79
2024/04/03 10:44:42;;;;;;;2.40;0.80;;;;;;;14.99;54.42;97986.85;226856;1266;25050;-80
2024/04/03 10:49:44;;;;;;;1.40;0.60;;;;;;;15.14;53.96;97987.32;227050;1270;24920;-80
2024/04/03 10:54:47;;;;;;;4.00;1.00;;;;;;;15.24;53.93;97978.24;226875;1253;22565;-81
2024/04/03 10:59:49;;;;;;;1.90;0.60;;;;;;;15.47;53.35;97984.96;227000;1266;22538;-80
2024/04/03 11:04:51;;;;;;;1.90;0.80;;;;;;;15.60;53.15;97978.08;226875;1267;22573;-81
2024/04/03 11:09:53;;;;;;;2.40;1.00;;;;;;;15.69;53.52;97987.50;226987;1267;24216;-81
2024/04/03 11:14:56;;;;;;;2.10;0.90;;;;;;;15.85;53.33;97988.91;226916;1251;22540;-82
2024/04/03 11:19:57;;;;;;;1.60;0.80;;;;;;;15.92;53.47;97983.10;226995;1270;22711;-80
2024/04/03 11:25:00;;;;;;;3.70;1.30;;;;;;;15.97;52.55;97990.16;226962;1267;22617;-80
2024/04/03 11:30:03;;;;;;;1.60;0.70;;;;;;;16.04;52.41;97990.43;226884;1270;22538;-81
2024/04/03 11:35:08;;;;;;;1.00;0.60;;;;;;;16.02;52.60;97993.39;226865;1256;22573;-81
2024/04/03 11:40:10;;;;;;;2.60;0.60;;;;;;;16.01;52.90;97987.98;226349;1270;24985;-82
2024/04/03 11:45:12;;;;;;;1.40;0.70;;;;;;;15.91;53.15;97988.52;227015;1263;22726;-82
2024/04/03 11:50:15;;;;;;;2.30;0.60;;;;;;;15.86;53.14;97988.55;227143;1261;22935;-82
2024/04/03 11:55:17;;;;;;;1.50;0.70;;;;;;;16.12;53.06;97981.34;226904;1270;22668;-81
2024/04/03 12:00:19;;;;;;;1.50;0.70;;;;;;;16.42;51.97;97982.85;226871;1258;22522;-81
2024/04/03 12:05:21;;;;;;;1.40;0.70;;;;;;;16.51;51.06;97986.51;226818;1267;23084;-81
2024/04/03 12:10:23;;;;;;;3.10;1.10;;;;;;;16.74;51.46;97988.88;226951;1267;22535;-81
2024/04/03 12:15:25;;;;;;;2.60;0.80;;;;;;;17.05;50.91;97990.60;226875;1270;22542;-82
2024/04/03 12:20:30;;;;;;;2.40;0.70;;;;;;;17.23;50.90;97987.98;227092;1267;22567;-81
2024/04/03 12:25:33;;;;;;;3.50;0.70;;;;;;;17.31;50.94;97987.50;226935;1272;23759;-82
2024/04/03 12:30:35;;;;;;;2.00;0.60;;;;;;;17.32;50.20;97995.98;226910;1272;22559;-79
2024/04/03 12:35:37;;;;;;;2.30;0.70;;;;;;;17.19;50.61;97995.54;226882;1263;22645;-80
2024/04/03 12:40:39;;;;;;;1.40;0.60;;;;;;;17.14;51.08;98001.50;226934;1270;22550;-80
2024/04/03 12:45:41;;;;;;;2.80;0.80;;;;;;;16.99;50.92;98002.39;226819;1272;22561;-82
2024/04/03 12:50:43;;;;;;;2.10;0.70;;;;;;;17.01;51.25;98002.83;227269;1265;22696;-82
2024/04/03 12:55:46;;;;;;;3.90;0.80;;;;;;;17.05;50.93;97999.73;227000;1268;22542;-82
2024/04/03 13:00:51;;;;;;;3.70;0.90;;;;;;;17.09;51.14;97995.56;226978;1272;22959;-85
2024/04/03 13:05:55;;;;;;;6.40;5.40;;;;;;;17.10;50.54;97998.17;226660;1264;22546;-81
2024/04/03 13:10:57;;;;;;;2.50;0.80;;;;;;;17.07;50.70;98003.11;226927;1267;22647;-80
2024/04/03 13:16:00;;;;;;;1.30;0.60;;;;;;;17.11;50.96;98009.09;226670;1267;193662;-80
2024/04/03 13:21:02;;;;;;;1.60;0.60;;;;;;;17.15;50.88;98003.16;226932;1267;22719;-81
2024/04/03 13:26:04;;;;;;;1.50;0.60;;;;;;;17.09;50.52;98002.02;226890;1269;22583;-81
2024/04/03 13:31:07;;;;;;;1.30;0.60;;;;;;;17.10;51.32;97999.69;226907;1256;22533;-81
2024/04/03 13:36:09;;;;;;;2.40;0.80;;;;;;;17.28;51.43;98002.09;226927;1267;22552;-80
2024/04/03 13:41:11;;;;;;;3.80;0.60;;;;;;;17.49;51.09;97997.89;226922;1270;22549;-80
2024/04/03 13:46:13;;;;;;;1.90;0.60;;;;;;;17.59;50.96;98007.49;226850;1269;22550;-86
2024/04/03 13:51:17;;;;;;;2.80;1.20;;;;;;;17.62;50.45;98006.30;226559;1267;22537;-81
2024/04/03 13:56:19;;;;;;;2.70;0.70;;;;;;;17.58;50.43;97997.98;226380;1270;22549;-84
2024/04/03 14:01:21;;;;;;;1.20;0.60;;;;;;;17.59;50.31;98003.34;225992;1274;22557;-81
2024/04/03 14:06:23;;;;;;;2.90;0.70;;;;;;;17.46;49.98;98003.29;226370;1270;22535;-83
2024/04/03 14:11:26;;;;;;;2.00;0.60;;;;;;;17.31;50.06;98004.20;226558;1270;22553;-82
2024/04/03 14:16:28;;;;;;;1.30;0.60;;;;;;;17.23;50.47;98005.92;226814;1270;22564;-83
2024/04/03 14:21:29;;;;;;;2.30;0.80;;;;;;;17.23;50.98;98005.54;226858;1269;22564;-83
2024/04/03 14:26:31;;;;;;;1.90;0.60;;;;;;;17.21;51.23;98009.64;226828;1267;25440;-84
2024/04/03 14:31:33;;;;;;;1.40;0.70;;;;;;;17.12;51.33;98009.95;226814;1273;22641;-84
2024/04/03 14:36:35;;;;;;;3.40;0.80;;;;;;;17.00;51.56;98016.70;226802;1270;22534;-85
2024/04/03 14:41:37;;;;;;;2.70;1.00;;;;;;;16.87;51.70;98015.03;226887;1273;22587;-85
2024/04/03 14:46:40;;;;;;;3.20;1.10;;;;;;;16.72;51.90;98024.38;226956;1273;22584;-83
2024/04/03 14:51:42;;;;;;;3.10;0.90;;;;;;;16.58;52.27;98025.02;226989;1273;22567;-84
2024/04/03 14:56:45;;;;;;;3.20;0.90;;;;;;;16.43;52.56;98026.18;227011;1273;22564;-83
2024/04/03 15:01:51;;;;;;;1.80;0.80;;;;;;;16.26;52.72;98031.66;226789;1273;22642;-84
2024/04/03 15:06:53;;;;;;;3.40;0.90;;;;;;;16.04;52.77;98032.87;226982;1273;22535;-84
2024/04/03 15:11:55;;;;;;;3.50;1.30;;;;;;;15.88;53.58;98037.34;226836;1272;22661;-83
2024/04/03 15:16:57;;;;;;;4.80;1.80;;;;;;;15.76;53.87;98043.40;226713;1273;22552;-83
2024/04/03 15:21:59;;;;;;;3.00;1.60;;;;;;;15.65;54.19;98045.48;226887;1273;22527;-83
2024/04/03 15:27:01;;;;;;;3.10;1.30;;;;;;;15.53;54.64;98047.66;226980;1267;22946;-83
2024/04/03 15:32:08;;;;;;;3.30;1.40;;;;;;;15.43;54.58;98053.09;226833;1273;22574;-83
2024/04/03 15:37:10;;;;;;;2.10;1.40;;;;;;;15.34;55.20;98058.08;227011;1273;23774;-83
2024/04/03 15:42:11;;;;;;;4.70;1.90;;;;;;;15.24;55.04;98061.23;226843;1272;22583;-82
2024/04/03 15:47:13;;;;;;;3.20;1.60;;;;;;;15.17;55.43;98064.59;226939;1272;22538;-84
2024/04/03 15:52:15;;;;;;;4.50;1.50;;;;;;;15.10;55.70;98064.77;226960;1271;25459;-83
2024/04/03 15:57:18;;;;;;;3.70;1.40;;;;;;;15.01;55.81;98065.73;226831;1273;25572;-83
2024/04/03 16:02:20;;;;;;;3.10;2.50;;;;;;;14.91;55.98;98066.29;226975;1274;22539;-82
2024/04/03 16:07:21;;;;;;;5.70;3.80;;;;;;;14.85;56.51;98073.23;226863;1272;22535;-84
2024/04/03 16:12:25;;;;;;;4.60;2.70;;;;;;;14.76;56.55;98078.79;226810;1273;22496;-83
2024/04/03 16:17:28;;;;;;;3.00;1.70;;;;;;;14.65;56.51;98079.27;226897;1270;24222;-83
2024/04/03 16:22:30;;;;;;;5.10;2.20;;;;;;;14.56;56.71;98081.11;226801;1272;22714;-83
2024/04/03 16:27:32;;;;;;;5.40;2.30;;;;;;;14.49;56.76;98084.02;227091;1271;22601;-83
2024/04/03 16:32:34;;;;;;;4.20;2.20;;;;;;;14.42;56.71;98088.73;226953;1272;23295;-83
2024/04/03 16:37:37;;;;;;;6.30;2.80;;;;;;;14.37;57.09;98098.79;227044;1267;22564;-83
2024/04/03 16:42:40;;;;;;;5.50;3.20;;;;;;;14.30;57.34;98104.88;226760;1273;22565;-82
2024/04/03 16:47:42;;;;;;;5.80;3.30;;;;;;;14.20;57.55;98111.70;226998;1272;24219;-83
2024/04/03 16:52:44;;;;;;;4.70;2.70;;;;;;;14.08;58.15;98123.08;226885;1266;22594;-82
2024/04/03 16:57:50;;;;;;;2.50;1.90;;;;;;;13.97;59.08;98130.02;227000;1269;22568;-82
2024/04/03 17:02:52;;;;;;;2.90;1.40;;;;;;;13.84;59.87;98137.88;226881;1272;22528;-83
2024/04/03 17:07:53;;;;;;;1.80;1.50;;;;;;;13.67;60.34;98143.70;227013;1273;22577;-82
2024/04/03 17:12:55;;;;;;;2.70;1.20;;;;;;;13.54;60.89;98152.27;226923;1270;22565;-83
2024/04/03 17:17:57;;;;;;;4.00;1.50;;;;;;;13.43;61.31;98157.34;227091;1273;22551;-82
2024/04/03 17:22:59;;;;;;;3.90;1.70;;;;;;;13.34;61.66;98162.66;226959;1273;22547;-83
2024/04/03 17:28:01;;;;;;;6.10;1.50;;;;;;;13.25;62.03;98165.48;227107;1273;22698;-83
2024/04/03 17:33:04;;;;;;;3.00;1.40;;;;;;;13.17;62.40;98170.17;227086;1271;22545;-85
2024/04/03 17:38:07;;;;;;;4.20;2.10;;;;;;;13.11;62.57;98184.68;226913;1273;22561;-84
2024/04/03 17:43:09;;;;;;;4.70;2.40;;;;;;;13.06;63.15;98195.30;226932;1272;22539;-83
2024/04/03 17:48:11;;;;;;;4.50;2.30;;;;;;;12.97;63.60;98200.08;226741;1273;22549;-83
2024/04/03 17:53:15;;;;;;;6.30;2.60;;;;;;;12.89;63.70;98209.94;226953;1273;23082;-85
2024/04/03 17:58:16;;;;;;;5.00;2.20;;;;;;;12.82;63.95;98209.17;227015;1269;22545;-83
2024/04/03 18:03:19;;;;;;;5.70;2.70;;;;;;;12.77;64.41;98214.21;226802;1270;23542;-83
2024/04/03 18:08:20;;;;;;;6.60;2.90;;;;;;;12.75;64.80;98223.92;226988;1269;22538;-83
2024/04/03 18:13:22;;;;;;;6.40;2.40;;;;;;;12.72;65.01;98233.52;227035;1272;22539;-84
2024/04/03 18:18:24;;;;;;;3.90;2.10;;;;;;;12.69;65.17;98236.77;227028;1273;25904;-84
2024/04/03 18:23:28;;;;;;;3.70;2.20;;;;;;;12.64;65.49;98242.65;226975;1269;22533;-83
2024/04/03 18:28:31;;;;;;;6.50;2.30;;;;;;;12.59;65.79;98256.57;226836;1273;22563;-84
2024/04/03 18:33:34;;;;;;;6.60;2.40;;;;;;;12.57;66.33;98257.96;226991;1251;22550;-84
2024/04/03 18:38:37;;;;;;;7.00;3.40;;;;;;;12.55;66.07;98262.98;226944;1270;22552;-84
2024/04/03 18:43:39;;;;;;;8.20;3.80;;;;;;;12.52;66.54;98266.42;227065;1273;22706;-84
2024/04/03 18:48:41;;;;;;;17.10;12.40;;;;;;;12.48;66.27;98273.49;227016;1273;22522;-84
2024/04/03 18:53:43;;;;;;;8.40;3.90;;;;;;;12.47;66.80;98275.27;227055;1272;22493;-84
2024/04/03 18:58:46;;;;;;;6.60;3.30;;;;;;;12.45;67.01;98279.57;226972;1267;22615;-83
2024/04/03 19:03:47;;;;;;;5.30;3.20;;;;;;;12.40;67.16;98284.35;227011;1269;22542;-83
2024/04/03 19:08:49;;;;;;;4.80;1.90;;;;;;;12.33;67.21;98285.11;226979;1269;22539;-84
2024/04/03 19:13:51;;;;;;;2.90;1.60;;;;;;;12.25;67.66;98289.02;226885;1266;24165;-84
2024/04/03 19:18:53;;;;;;;2.80;1.30;;;;;;;12.19;68.05;98294.80;226802;1273;22547;-85
2024/04/03 19:23:58;;;;;;;2.30;1.40;;;;;;;12.13;68.18;98298.09;226962;1256;23477;-84
2024/04/03 19:29:00;;;;;;;3.10;1.30;;;;;;;12.06;68.83;98298.55;226974;1268;24893;-84
2024/04/03 19:34:05;;;;;;;2.30;1.50;;;;;;;11.96;69.46;98298.30;226908;1269;22553;-84
2024/04/03 19:39:07;;;;;;;3.50;1.80;;;;;;;11.83;70.30;98296.27;226973;1253;22542;-83
2024/04/03 19:44:09;;;;;;;3.90;1.90;;;;;;;11.69;70.69;98300.63;226925;1256;24207;-82
2024/04/03 19:49:11;;;;;;;3.00;1.80;;;;;;;11.60;71.25;98300.02;226960;1273;22614;-83
2024/04/03 19:54:13;;;;;;;3.30;1.60;;;;;;;11.52;71.81;98306.80;226827;1272;22611;-83
2024/04/03 19:59:15;;;;;;;4.90;2.10;;;;;;;11.42;72.29;98307.25;226877;1272;22563;-82
2024/04/03 20:04:17;;;;;;;3.90;2.30;;;;;;;11.32;73.06;98307.69;226906;1270;22556;-83
2024/04/03 20:09:19;;;;;;;5.30;2.50;;;;;;;11.23;73.41;98306.73;226824;1273;22540;-83
2024/04/03 20:14:21;;;;;;;6.30;2.70;;;;;;;11.17;73.67;98305.41;226885;1272;22577;-83
2024/04/03 20:19:24;;;;;;;4.70;2.80;;;;;;;11.13;74.22;98306.69;226898;1260;22555;-83
2024/04/03 20:24:27;;;;;;;6.20;3.50;;;;;;;11.10;74.28;98307.17;226976;1273;22496;-82
2024/04/03 20:29:29;;;;;;;6.40;3.10;;;;;;;11.08;74.57;98308.56;226904;1272;22546;-83
2024/04/03 20:34:31;;;;;;;5.60;3.20;;;;;;;11.04;74.73;98311.44;226850;1271;22538;-83
2024/04/03 20:39:36;;;;;;;6.40;3.40;;;;;;;10.99;75.27;98315.58;226972;1272;23609;-82
2024/04/03 20:44:38;;;;;;;6.90;4.00;;;;;;;10.94;75.58;98312.30;226970;1269;22561;-84
2024/04/03 20:49:40;;;;;;;6.20;3.70;;;;;;;10.93;75.55;98316.23;226847;1272;24325;-83
2024/04/03 20:54:42;;;;;;;6.20;3.70;;;;;;;10.91;75.96;98312.29;226753;1273;22653;-85
2024/04/03 20:59:45;;;;;;;6.90;3.40;;;;;;;10.88;76.05;98312.80;226946;1269;22568;-82
2024/04/03 21:04:57;;;;;;;6.60;3.90;;;;;;;10.87;76.32;98311.00;226903;1272;22531;-82
2024/04/03 21:10:01;;;;;;;7.30;3.90;;;;;;;10.86;76.47;98316.62;226925;1273;22537;-81
2024/04/03 21:15:05;;;;;;;6.10;3.80;;;;;;;10.84;76.77;98316.00;226919;1267;22588;-83
2024/04/03 21:20:10;;;;;;;7.50;4.30;;;;;;;10.83;76.87;98319.52;226804;1266;22531;-84
2024/04/03 21:25:12;;;;;;;10.30;5.00;;;;;;;10.81;77.26;98324.15;226841;1270;22532;-82
2024/04/03 21:30:15;;;;;;;8.60;5.60;;;;;;;10.79;77.44;98326.62;226855;1273;22624;-82
2024/04/03 21:35:17;;;;;;;9.80;5.50;;;;;;;10.78;77.48;98323.45;226780;1269;22555;-83
2024/04/03 21:40:19;;;;;;;7.90;4.70;;;;;;;10.76;77.49;98333.84;226967;1269;22551;-83
2024/04/03 21:45:21;;;;;;;8.60;5.20;;;;;;;10.70;77.97;98330.54;226861;1270;22530;-83
2024/04/03 21:50:22;;;;;;;10.20;5.50;;;;;;;10.64;78.02;98327.48;226781;1272;23192;-83
2024/04/03 21:55:24;;;;;;;9.30;5.30;;;;;;;10.58;78.24;98327.98;226899;1272;22546;-82
2024/04/03 22:00:29;;;;;;;10.30;6.00;;;;;;;10.51;78.43;98329.59;226965;1273;22547;-81
2024/04/03 22:05:31;;;;;;;9.20;5.80;;;;;;;10.44;78.70;98334.77;226940;1272;22572;-82
2024/04/03 22:10:33;;;;;;;9.10;5.80;;;;;;;10.39;78.91;98330.73;226865;1269;22571;-82
2024/04/03 22:15:35;;;;;;;9.90;6.30;;;;;;;10.31;79.10;98332.93;227000;1272;22572;-83
2024/04/03 22:20:38;;;;;;;10.40;6.30;;;;;;;10.23;79.25;98331.64;226954;1272;22541;-82
2024/04/03 22:25:40;;;;;;;11.30;6.10;;;;;;;10.17;79.52;98334.42;226839;1258;22566;-83
2024/04/03 22:30:41;;;;;;;12.10;6.70;;;;;;;10.12;79.73;98335.95;226744;1274;22591;-83
2024/04/03 22:35:48;;;;;;;9.50;6.10;;;;;;;10.08;79.92;98337.65;226918;1273;22674;-83
2024/04/03 22:40:50;;;;;;;11.60;6.20;;;;;;;10.07;80.04;98335.52;226839;1273;22546;-83
2024/04/03 22:46:00;;;;;;;9.90;6.20;;;;;;;10.07;80.34;98333.21;226979;1273;23421;-82
2024/04/03 22:51:03;;;;;;;10.80;6.80;;;;;;;10.05;80.65;98332.34;226922;1272;23126;-82
2024/04/03 22:56:04;;;;;;;11.20;7.10;;;;;;;10.01;80.76;98329.39;226926;1272;23877;-83
2024/04/03 23:01:06;;;;;;;10.80;6.90;;;;;;;9.97;80.69;98327.41;226823;1270;25434;-83
2024/04/03 23:06:15;;;;;;;13.30;7.30;;;;;;;9.91;81.01;98328.02;226894;1273;22560;-82
2024/04/03 23:11:17;;;;;;;10.90;6.50;;;;;;;9.88;81.02;98330.70;226734;1272;22525;-83
2024/04/03 23:16:18;;;;;;;10.00;6.60;;;;;;;9.87;81.19;98327.01;226779;1270;22544;-82
2024/04/03 23:21:21;;;;;;;9.80;6.40;;;;;;;9.86;81.41;98319.52;226731;1273;22634;-82
2024/04/03 23:26:23;;;;;;;13.10;6.40;;;;;;;9.85;81.65;98318.59;226837;1272;22531;-82
2024/04/03 23:31:25;;;;;;;10.20;5.70;;;;;;;9.84;81.81;98317.39;226783;1269;22540;-82
2024/04/03 23:36:27;;;;;;;10.20;6.10;;;;;;;9.83;81.82;98316.51;226723;1269;23819;-82